createdAt,value
2018-07-02T00:00:37.542Z,46.40
2018-07-02T00:03:05.259Z,46.80
2018-07-02T00:05:44.060Z,46.60
2018-07-02T00:08:11.760Z,46.10
2018-07-02T00:10:39.543Z,46.20
2018-07-02T00:13:07.224Z,46.20
2018-07-02T00:15:34.933Z,46.90
2018-07-02T00:18:02.634Z,46.60
2018-07-02T00:20:30.348Z,46.20
2018-07-02T00:22:58.077Z,46.10
2018-07-02T00:25:25.756Z,46.30
2018-07-02T00:27:53.458Z,46.20
2018-07-02T00:30:21.120Z,46.10
2018-07-02T00:32:48.836Z,46.20
2018-07-02T00:35:16.531Z,46.30
2018-07-02T00:37:44.227Z,46.40
2018-07-02T00:40:11.960Z,46.20
2018-07-02T00:42:39.716Z,46.20
2018-07-02T00:45:07.433Z,46.20
2018-07-02T00:47:35.201Z,46.50
2018-07-02T00:50:02.979Z,46.80
2018-07-02T00:52:30.688Z,46.90
2018-07-02T00:54:58.392Z,46.80
2018-07-02T00:57:26.043Z,46.80
2018-07-02T00:59:54.340Z,46.90
2018-07-02T01:02:22.007Z,46.60
2018-07-02T01:04:49.680Z,46.60
2018-07-02T01:07:17.337Z,46.70
2018-07-02T01:09:45.035Z,46.60
2018-07-02T01:12:12.749Z,46.70
2018-07-02T01:14:40.468Z,46.90
2018-07-02T01:17:08.124Z,46.90
2018-07-02T01:19:35.827Z,47.00
2018-07-02T01:22:03.604Z,46.80
2018-07-02T01:24:31.312Z,47.10
2018-07-02T01:26:58.985Z,47.20
2018-07-02T01:29:26.660Z,46.80
2018-07-02T01:31:54.399Z,47.00
2018-07-02T01:34:22.071Z,46.90
2018-07-02T01:36:49.760Z,47.20
2018-07-02T01:39:17.435Z,47.70
2018-07-02T01:41:45.132Z,47.50
2018-07-02T01:44:12.807Z,47.80
2018-07-02T01:46:40.518Z,48.00
2018-07-02T01:49:08.187Z,47.70
2018-07-02T01:51:35.907Z,47.60
2018-07-02T01:54:03.592Z,47.80
2018-07-02T01:56:31.285Z,47.90
2018-07-02T01:58:58.956Z,47.50
2018-07-02T02:01:26.707Z,47.40
2018-07-02T02:03:54.367Z,47.70
2018-07-02T02:06:22.035Z,47.60
2018-07-02T02:08:49.723Z,47.70
2018-07-02T02:11:17.418Z,48.30
2018-07-02T02:13:45.126Z,48.10
2018-07-02T02:16:12.830Z,48.60
2018-07-02T02:18:40.516Z,48.20
2018-07-02T02:21:08.266Z,48.40
2018-07-02T02:23:35.945Z,48.10
2018-07-02T02:26:03.832Z,48.50
2018-07-02T02:28:31.559Z,48.20
2018-07-02T02:30:59.205Z,48.10
2018-07-02T02:33:26.836Z,48.20
2018-07-02T02:35:54.568Z,48.40
2018-07-02T02:38:22.240Z,48.40
2018-07-02T02:40:49.953Z,48.30
2018-07-02T02:43:17.616Z,48.50
2018-07-02T02:45:45.326Z,48.80
2018-07-02T02:48:13.041Z,48.50
2018-07-02T02:50:40.721Z,48.40
2018-07-02T02:53:08.389Z,48.40
2018-07-02T02:55:36.165Z,49.10
2018-07-02T02:58:04.889Z,49.30
2018-07-02T03:00:32.755Z,49.60
2018-07-02T03:03:00.428Z,49.20
2018-07-02T03:05:28.124Z,49.00
2018-07-02T03:07:55.819Z,48.80
2018-07-02T03:10:23.541Z,48.90
2018-07-02T03:12:51.264Z,49.30
2018-07-02T03:15:18.932Z,48.80
2018-07-02T03:17:46.603Z,49.40
2018-07-02T03:20:14.433Z,49.60
2018-07-02T03:22:42.028Z,49.50
2018-07-02T03:25:09.744Z,49.50
2018-07-02T03:27:37.462Z,49.40
2018-07-02T03:30:05.297Z,49.70
2018-07-02T03:32:32.982Z,50.10
2018-07-02T03:35:00.687Z,50.00
2018-07-02T03:37:28.419Z,49.90
2018-07-02T03:39:56.104Z,50.30
2018-07-02T03:42:23.840Z,50.10
2018-07-02T03:44:51.548Z,50.40
2018-07-02T03:47:19.208Z,50.60
2018-07-02T03:49:46.935Z,50.70
2018-07-02T03:52:14.658Z,50.80
2018-07-02T03:54:42.343Z,50.50
2018-07-02T03:57:10.016Z,51.20
2018-07-02T03:59:37.656Z,50.70
2018-07-02T04:02:05.507Z,50.80
2018-07-02T04:04:33.182Z,50.70
2018-07-02T04:07:00.873Z,51.20
2018-07-02T04:09:28.563Z,51.10
2018-07-02T04:11:56.245Z,51.00
2018-07-02T04:14:23.892Z,51.20
2018-07-02T04:16:51.612Z,50.90
2018-07-02T04:19:19.265Z,51.70
2018-07-02T04:21:46.920Z,51.50
2018-07-02T04:24:14.597Z,51.70
2018-07-02T04:26:42.229Z,51.60
2018-07-02T04:29:10.316Z,52.50
2018-07-02T04:31:37.951Z,52.10
2018-07-02T04:34:05.735Z,52.40
2018-07-02T04:36:34.116Z,52.30
2018-07-02T04:39:01.904Z,52.40
2018-07-02T04:41:29.580Z,52.70
2018-07-02T04:43:57.315Z,52.20
2018-07-02T04:46:24.999Z,52.50
2018-07-02T04:48:52.699Z,52.20
2018-07-02T04:51:20.413Z,52.30
2018-07-02T04:53:48.035Z,52.70
2018-07-02T04:56:15.748Z,53.00
2018-07-02T04:58:43.396Z,52.40
2018-07-02T05:01:11.120Z,52.90
2018-07-02T05:03:38.783Z,52.50
2018-07-02T05:06:07.185Z,52.20
2018-07-02T05:08:34.874Z,53.00
2018-07-02T05:11:02.661Z,52.40
2018-07-02T05:13:30.340Z,52.60
2018-07-02T05:15:58.037Z,52.90
2018-07-02T05:18:25.700Z,53.00
2018-07-02T05:20:53.368Z,53.10
2018-07-02T05:23:21.027Z,52.70
2018-07-02T05:25:48.729Z,53.20
2018-07-02T05:28:16.424Z,53.70
2018-07-02T05:30:44.129Z,53.00
2018-07-02T05:33:11.782Z,52.90
2018-07-02T05:35:39.460Z,53.20
2018-07-02T05:38:07.123Z,53.50
2018-07-02T05:40:34.884Z,53.50
2018-07-02T05:43:03.027Z,52.70
2018-07-02T05:45:30.683Z,52.60
2018-07-02T05:47:58.603Z,52.90
2018-07-02T05:50:26.273Z,53.20
2018-07-02T05:52:53.969Z,52.90
2018-07-02T05:55:21.657Z,52.80
2018-07-02T05:57:49.344Z,51.70
2018-07-02T06:00:17.101Z,52.00
2018-07-02T06:02:44.706Z,52.10
2018-07-02T06:05:12.380Z,52.40
2018-07-02T06:07:40.073Z,52.00
2018-07-02T06:10:07.795Z,53.40
2018-07-02T06:12:35.465Z,52.40
2018-07-02T06:15:03.212Z,51.90
2018-07-02T06:17:30.896Z,51.20
2018-07-02T06:19:58.576Z,52.00
2018-07-02T06:22:26.203Z,51.90
2018-07-02T06:24:53.987Z,50.90
2018-07-02T06:27:21.586Z,50.50
2018-07-02T06:29:49.280Z,51.10
2018-07-02T06:32:16.961Z,52.00
2018-07-02T06:34:44.681Z,50.80
2018-07-02T06:37:12.359Z,52.00
2018-07-02T06:39:40.029Z,50.80
2018-07-02T06:42:07.793Z,50.50
2018-07-02T06:44:35.460Z,50.20
2018-07-02T06:47:03.289Z,50.60
2018-07-02T06:49:30.958Z,50.50
2018-07-02T06:51:58.665Z,50.80
2018-07-02T06:54:26.355Z,51.10
2018-07-02T06:56:54.065Z,51.90
2018-07-02T06:59:21.760Z,49.40
2018-07-02T07:01:49.932Z,50.40
2018-07-02T07:04:17.568Z,50.90
2018-07-02T07:06:45.244Z,49.80
2018-07-02T07:09:12.901Z,49.70
2018-07-02T07:11:40.661Z,50.50
2018-07-02T07:14:08.463Z,50.10
2018-07-02T07:16:36.204Z,50.00
2018-07-02T07:19:03.870Z,48.70
2018-07-02T07:21:31.573Z,48.70
2018-07-02T07:23:59.415Z,50.40
2018-07-02T07:26:27.053Z,48.70
2018-07-02T07:28:54.773Z,50.10
2018-07-02T07:31:22.779Z,48.90
2018-07-02T07:33:50.485Z,50.00
2018-07-02T07:36:18.776Z,48.70
2018-07-02T07:38:46.448Z,47.90
2018-07-02T07:41:14.160Z,48.00
2018-07-02T07:43:41.851Z,48.30
2018-07-02T07:46:09.536Z,48.90
2018-07-02T07:48:37.243Z,47.70
2018-07-02T07:51:05.035Z,47.70
2018-07-02T07:53:32.729Z,47.10
2018-07-02T07:56:00.455Z,46.90
2018-07-02T07:58:28.156Z,45.10
2018-07-02T08:00:55.990Z,45.90
2018-07-02T08:03:23.712Z,45.50
2018-07-02T08:05:51.379Z,47.40
2018-07-02T08:08:19.064Z,46.80
2018-07-02T08:10:46.770Z,45.00
2018-07-02T08:13:14.440Z,45.30
2018-07-02T08:15:42.117Z,44.90
2018-07-02T08:18:09.803Z,46.30
2018-07-02T08:20:37.506Z,45.60
2018-07-02T08:23:05.456Z,46.00
2018-07-02T08:25:33.159Z,45.40
2018-07-02T08:28:00.900Z,45.80
2018-07-02T08:30:28.583Z,45.60
2018-07-02T08:32:56.267Z,44.50
2018-07-02T08:35:23.931Z,45.60
2018-07-02T08:37:51.743Z,43.30
2018-07-02T08:40:19.470Z,43.80
2018-07-02T08:42:47.215Z,42.90
2018-07-02T08:45:14.876Z,43.80
2018-07-02T08:47:42.576Z,44.10
2018-07-02T08:50:10.272Z,44.70
2018-07-02T08:52:37.968Z,44.10
2018-07-02T08:55:05.844Z,44.20
2018-07-02T08:57:33.516Z,42.40
2018-07-02T09:00:01.248Z,42.90
2018-07-02T09:02:28.957Z,42.90
2018-07-02T09:04:56.648Z,45.00
2018-07-02T09:07:24.342Z,43.70
2018-07-02T09:09:52.032Z,42.50
2018-07-02T09:12:19.803Z,43.70
2018-07-02T09:14:47.582Z,42.50
2018-07-02T09:17:15.180Z,41.90
2018-07-02T09:19:42.895Z,43.10
2018-07-02T09:22:10.580Z,42.50
2018-07-02T09:24:38.292Z,41.90
2018-07-02T09:27:05.949Z,43.50
2018-07-02T09:29:33.845Z,43.30
2018-07-02T09:32:01.552Z,41.10
2018-07-02T09:34:29.284Z,40.50
2018-07-02T09:36:56.988Z,40.80
2018-07-02T09:39:24.725Z,41.60
2018-07-02T09:41:52.395Z,41.80
2018-07-02T09:44:20.096Z,41.00
2018-07-02T09:46:47.812Z,40.60
2018-07-02T09:49:15.625Z,39.60
2018-07-02T09:51:43.329Z,40.00
2018-07-02T09:54:12.495Z,40.00
2018-07-02T09:56:40.248Z,39.60
2018-07-02T09:59:07.981Z,37.20
2018-07-02T10:01:35.776Z,39.30
2018-07-02T10:04:03.536Z,37.20
2018-07-02T10:06:31.533Z,39.00
2018-07-02T10:08:59.336Z,36.40
2018-07-02T10:11:27.125Z,36.40
2018-07-02T10:13:54.893Z,35.90
2018-07-02T10:16:22.607Z,34.70
2018-07-02T10:18:50.625Z,36.30
2018-07-02T10:21:18.376Z,35.50
2018-07-02T10:23:46.143Z,34.20
2018-07-02T10:26:13.873Z,34.50
2018-07-02T10:28:42.002Z,34.00
2018-07-02T10:31:09.796Z,36.50
2018-07-02T10:33:37.709Z,36.20
2018-07-02T10:36:05.397Z,36.60
2018-07-02T10:38:33.140Z,36.20
2018-07-02T10:41:00.847Z,35.80
2018-07-02T10:43:30.923Z,38.10
2018-07-02T10:45:58.857Z,35.90
2018-07-02T10:48:26.579Z,37.00
2018-07-02T10:50:54.648Z,36.40
2018-07-02T10:53:22.333Z,35.40
2018-07-02T10:55:50.078Z,33.80
2018-07-02T10:58:17.760Z,34.10
2018-07-02T11:00:49.443Z,36.40
2018-07-02T11:03:17.138Z,33.30
2018-07-02T11:05:44.883Z,33.20
2018-07-02T11:08:12.577Z,34.10
2018-07-02T11:10:40.351Z,34.00
2018-07-02T11:13:10.564Z,34.60
2018-07-02T11:15:38.901Z,35.40
2018-07-02T11:18:07.855Z,33.30
2018-07-02T11:20:36.197Z,33.50
2018-07-02T11:23:03.911Z,32.00
2018-07-02T11:25:32.558Z,34.90
2018-07-02T11:28:00.313Z,31.20
2018-07-02T11:30:28.037Z,32.10
2018-07-02T11:32:55.792Z,34.10
2018-07-02T11:35:23.461Z,33.50
2018-07-02T11:37:51.614Z,32.90
2018-07-02T11:40:19.317Z,32.90
2018-07-02T11:42:47.052Z,31.20
2018-07-02T11:45:14.832Z,30.70
2018-07-02T11:47:42.560Z,30.00
2018-07-02T11:50:10.767Z,31.20
2018-07-02T11:52:38.832Z,31.60
2018-07-02T11:55:08.720Z,31.90
2018-07-02T11:57:36.962Z,31.60
2018-07-02T12:00:05.636Z,30.10
2018-07-02T12:02:33.453Z,29.30
2018-07-02T12:05:01.225Z,31.00
2018-07-02T12:07:29.220Z,30.10
2018-07-02T12:09:56.948Z,30.60
2018-07-02T12:12:24.717Z,30.70
2018-07-02T12:14:52.465Z,29.00
2018-07-02T12:17:21.403Z,29.60
2018-07-02T12:19:49.188Z,32.70
2018-07-02T12:22:17.620Z,30.40
2018-07-02T12:24:45.374Z,32.30
2018-07-02T12:27:13.065Z,29.30
2018-07-02T12:29:40.772Z,28.60
2018-07-02T12:32:10.064Z,30.00
2018-07-02T12:34:37.851Z,31.40
2018-07-02T12:37:05.768Z,29.60
2018-07-02T12:39:35.130Z,30.70
2018-07-02T12:42:03.307Z,29.50
2018-07-02T12:44:31.487Z,29.60
2018-07-02T12:46:59.590Z,30.60
2018-07-02T12:49:29.412Z,29.30
2018-07-02T12:51:57.636Z,30.30
2018-07-02T12:54:26.767Z,28.80
2018-07-02T12:56:57.155Z,28.70
2018-07-02T12:59:25.161Z,29.80
2018-07-02T13:01:53.220Z,28.40
2018-07-02T13:04:22.075Z,27.50
2018-07-02T13:06:49.778Z,28.10
2018-07-02T13:09:18.500Z,29.80
2018-07-02T13:11:46.301Z,28.40
2018-07-02T13:14:14.691Z,28.10
2018-07-02T13:16:42.569Z,29.00
2018-07-02T13:19:11.078Z,27.90
2018-07-02T13:21:39.743Z,29.60
2018-07-02T13:24:07.938Z,28.40
2018-07-02T13:26:36.055Z,28.20
2018-07-02T13:29:04.175Z,28.60
2018-07-02T13:31:31.935Z,28.10
2018-07-02T13:33:59.951Z,29.80
2018-07-02T13:36:27.728Z,27.90
2018-07-02T13:38:55.452Z,28.50
2018-07-02T13:41:24.245Z,29.00
2018-07-02T13:43:52.119Z,28.80
2018-07-02T13:46:19.984Z,28.70
2018-07-02T13:48:49.538Z,29.10
2018-07-02T13:51:18.461Z,27.30
2018-07-02T13:53:46.681Z,27.90
2018-07-02T13:56:20.935Z,28.70
2018-07-02T13:58:49.442Z,28.20
2018-07-02T14:01:18.627Z,28.40
2018-07-02T14:03:47.728Z,27.60
2018-07-02T14:06:19.057Z,27.00
2018-07-02T14:08:52.769Z,27.40
2018-07-02T14:11:21.601Z,28.30
2018-07-02T14:30:11.479Z,27.90
2018-07-02T14:32:39.600Z,25.50
2018-07-02T14:35:07.457Z,27.20
2018-07-02T14:37:35.173Z,26.80
2018-07-02T14:40:03.237Z,25.50
2018-07-02T14:42:30.930Z,27.30
2018-07-02T14:44:58.663Z,27.50
2018-07-02T14:47:26.325Z,27.10
2018-07-02T14:49:54.045Z,26.70
2018-07-02T14:52:22.762Z,26.80
2018-07-02T14:54:50.428Z,26.30
2018-07-02T14:57:18.144Z,27.30
2018-07-02T14:59:45.829Z,27.60
2018-07-02T15:02:13.587Z,27.70
2018-07-02T15:04:41.308Z,26.40
2018-07-02T15:07:09.047Z,26.90
2018-07-02T15:09:36.755Z,26.60
2018-07-02T15:12:04.575Z,27.30
2018-07-02T15:14:32.272Z,27.60
2018-07-02T15:17:00.028Z,26.20
2018-07-02T15:19:27.738Z,26.60
2018-07-02T15:21:55.551Z,27.20
2018-07-02T15:24:23.570Z,27.20
2018-07-02T15:26:51.368Z,27.20
2018-07-02T15:29:19.040Z,27.90
2018-07-02T15:31:46.760Z,27.30
2018-07-02T15:34:14.448Z,27.20
2018-07-02T15:36:42.217Z,25.60
2018-07-02T15:39:10.386Z,26.40
2018-07-02T15:41:38.358Z,27.20
2018-07-02T15:44:06.202Z,26.00
2018-07-02T15:46:34.008Z,26.60
2018-07-02T15:49:01.731Z,26.30
2018-07-02T15:51:29.451Z,27.00
2018-07-02T15:53:57.230Z,26.40
2018-07-02T15:56:25.692Z,27.60
2018-07-02T15:58:53.480Z,27.00
2018-07-02T16:01:21.271Z,27.30
2018-07-02T16:03:49.052Z,26.50
2018-07-02T16:06:16.851Z,25.90
2018-07-02T16:08:45.094Z,26.50
2018-07-02T16:11:13.238Z,26.40
2018-07-02T16:13:41.410Z,28.20
2018-07-02T16:16:09.811Z,27.20
2018-07-02T16:18:38.049Z,26.90
2018-07-02T16:21:06.379Z,26.50
2018-07-02T16:23:35.408Z,27.20
2018-07-02T16:26:04.790Z,26.10
2018-07-02T16:28:32.873Z,27.40
2018-07-02T16:31:04.988Z,27.00
2018-07-02T16:33:35.217Z,27.00
2018-07-02T16:36:03.038Z,27.70
2018-07-02T16:38:31.574Z,26.70
2018-07-02T16:41:01.348Z,27.20
2018-07-02T16:43:29.161Z,28.00
2018-07-02T16:45:56.928Z,27.60
2018-07-02T16:48:24.641Z,28.60
2018-07-02T16:50:52.380Z,28.80
2018-07-02T16:53:20.238Z,28.60
2018-07-02T16:55:47.864Z,28.80
2018-07-02T16:58:15.601Z,28.40
2018-07-02T17:00:43.450Z,28.20
2018-07-02T17:03:11.306Z,28.30
2018-07-02T17:05:42.178Z,28.50
2018-07-02T17:08:10.490Z,27.70
2018-07-02T17:10:39.708Z,27.80
2018-07-02T17:13:07.793Z,28.80
2018-07-02T17:15:35.589Z,27.80
2018-07-02T17:18:03.445Z,27.50
2018-07-02T17:20:33.738Z,28.00
2018-07-02T17:23:06.556Z,27.20
2018-07-02T17:25:34.340Z,28.60
2018-07-02T17:28:02.060Z,27.60
2018-07-02T17:30:29.810Z,28.40
2018-07-02T17:33:06.600Z,29.40
2018-07-02T17:35:39.513Z,28.90
2018-07-02T17:38:18.242Z,28.90
2018-07-02T17:40:46.197Z,28.70
2018-07-02T17:43:13.875Z,29.30
2018-07-02T17:45:41.922Z,29.20
2018-07-02T17:48:15.721Z,28.90
2018-07-02T17:50:43.459Z,28.90
2018-07-02T17:53:11.171Z,29.70
2018-07-02T17:55:38.929Z,29.20
2018-07-02T17:58:06.688Z,29.00
2018-07-02T18:00:34.428Z,29.60
2018-07-02T18:03:02.335Z,29.90
2018-07-02T18:05:30.092Z,29.80
2018-07-02T18:07:57.839Z,30.50
2018-07-02T18:10:25.584Z,29.80
2018-07-02T18:12:55.249Z,30.20
2018-07-02T18:15:22.920Z,30.20
2018-07-02T18:17:53.109Z,30.90
2018-07-02T18:20:20.813Z,30.00
2018-07-02T18:22:48.615Z,31.60
2018-07-02T18:25:16.299Z,31.50
2018-07-02T18:27:44.025Z,31.10
2018-07-02T18:30:11.704Z,31.20
2018-07-02T18:32:39.507Z,31.10
2018-07-02T18:35:07.345Z,32.10
2018-07-02T18:37:35.229Z,31.50
2018-07-02T18:40:03.145Z,31.20
2018-07-02T18:42:30.845Z,31.60
2018-07-02T18:44:58.620Z,31.10
2018-07-02T18:47:26.437Z,31.50
2018-07-02T18:49:54.188Z,31.70
2018-07-02T18:52:21.896Z,31.50
2018-07-02T18:54:49.589Z,32.00
2018-07-02T18:57:17.304Z,31.90
2018-07-02T18:59:46.179Z,31.90
2018-07-02T19:02:17.485Z,32.60
2018-07-02T19:04:45.221Z,32.40
2018-07-02T19:07:12.955Z,33.20
2018-07-02T19:09:40.656Z,31.90
2018-07-02T19:12:08.409Z,32.90
2018-07-02T19:14:36.152Z,32.90
2018-07-02T19:17:04.180Z,32.60
2018-07-02T19:19:31.884Z,32.10
2018-07-02T19:21:59.666Z,32.00
2018-07-02T19:24:27.416Z,32.50
2018-07-02T19:26:55.173Z,32.40
2018-07-02T19:29:22.947Z,32.00
2018-07-02T19:31:50.593Z,32.10
2018-07-02T19:34:18.291Z,31.40
2018-07-02T19:36:45.988Z,32.20
2018-07-02T19:39:14.049Z,32.30
2018-07-02T19:41:41.801Z,32.30
2018-07-02T19:44:10.111Z,32.40
2018-07-02T19:46:37.823Z,32.80
2018-07-02T19:49:05.615Z,32.60
2018-07-02T19:51:33.324Z,33.00
2018-07-02T19:54:01.204Z,32.10
2018-07-02T19:56:29.051Z,32.70
2018-07-02T19:58:56.719Z,33.00
2018-07-02T20:01:24.480Z,33.30
2018-07-02T20:03:52.237Z,33.70
2018-07-02T20:06:19.964Z,33.80
2018-07-02T20:08:47.775Z,34.00
2018-07-02T20:11:15.547Z,34.40
2018-07-02T20:13:43.288Z,34.30
2018-07-02T20:16:10.999Z,34.20
2018-07-02T20:18:38.953Z,34.50
2018-07-02T20:21:06.709Z,34.60
2018-07-02T20:23:34.391Z,34.80
2018-07-02T20:26:02.098Z,34.60
2018-07-02T20:28:29.852Z,35.10
2018-07-02T20:30:57.645Z,35.20
2018-07-02T20:33:25.408Z,35.30
2018-07-02T20:35:53.136Z,35.70
2018-07-02T20:38:20.891Z,35.80
2018-07-02T20:40:48.670Z,35.80
2018-07-02T20:43:16.386Z,36.30
2018-07-02T20:45:44.169Z,36.40
2018-07-02T20:48:11.902Z,36.70
2018-07-02T20:50:39.608Z,36.70
2018-07-02T20:53:07.391Z,36.90
2018-07-02T20:55:35.084Z,36.70
2018-07-02T20:58:02.878Z,37.00
2018-07-02T21:00:31.257Z,37.10
2018-07-02T21:03:00.245Z,37.50
2018-07-02T21:05:28.013Z,36.80
2018-07-02T21:07:55.840Z,37.80
2018-07-02T21:10:23.657Z,37.70
2018-07-02T21:12:51.429Z,37.40
2018-07-02T21:15:19.136Z,37.60
2018-07-02T21:17:46.901Z,37.90
2018-07-02T21:20:14.644Z,37.80
2018-07-02T21:22:42.393Z,37.90
2018-07-02T21:25:10.180Z,37.90
2018-07-02T21:27:37.904Z,38.20
2018-07-02T21:30:06.828Z,38.40
2018-07-02T21:32:34.917Z,38.20
2018-07-02T21:35:02.714Z,38.40
2018-07-02T21:37:30.458Z,38.50
2018-07-02T21:39:58.240Z,38.40
2018-07-02T21:42:25.951Z,38.20
2018-07-02T21:44:53.755Z,38.40
2018-07-02T21:47:21.796Z,38.50
2018-07-02T21:49:49.549Z,38.70
2018-07-02T21:52:17.544Z,38.50
2018-07-02T21:54:45.248Z,38.30
2018-07-02T21:57:12.992Z,38.20
2018-07-02T21:59:40.779Z,38.60
2018-07-02T22:02:08.710Z,38.10
2018-07-02T22:04:36.500Z,38.50
2018-07-02T22:07:04.640Z,39.10
2018-07-02T22:09:32.353Z,39.50
2018-07-02T22:12:00.089Z,39.50
2018-07-02T22:14:27.801Z,39.40
2018-07-02T22:16:55.457Z,39.20
2018-07-02T22:19:23.189Z,39.40
2018-07-02T22:21:50.902Z,39.90
2018-07-02T22:24:18.669Z,39.70
2018-07-02T22:26:46.392Z,40.00
2018-07-02T22:29:14.084Z,40.20
2018-07-02T22:31:41.802Z,40.40
2018-07-02T22:34:09.482Z,40.30
2018-07-02T22:36:37.206Z,40.70
2018-07-02T22:39:08.527Z,40.60
2018-07-02T22:41:36.324Z,40.50
2018-07-02T22:44:04.379Z,40.70
2018-07-02T22:46:32.104Z,40.30
2018-07-02T22:48:59.808Z,40.60
2018-07-02T22:51:27.554Z,40.80
2018-07-02T22:53:55.768Z,40.90
2018-07-02T22:56:23.461Z,40.80
2018-07-02T22:58:51.167Z,41.20
2018-07-02T23:01:18.931Z,41.40
2018-07-02T23:03:46.655Z,41.30
2018-07-02T23:06:14.316Z,41.20
2018-07-02T23:08:42.029Z,41.70
2018-07-02T23:11:09.784Z,42.10
2018-07-02T23:13:37.488Z,41.60
2018-07-02T23:16:05.551Z,42.50
2018-07-02T23:18:33.813Z,42.00
2018-07-02T23:21:01.547Z,41.60
2018-07-02T23:23:29.528Z,41.40
2018-07-02T23:25:57.244Z,42.00
2018-07-02T23:28:24.923Z,42.40
2018-07-02T23:30:52.620Z,42.00
2018-07-02T23:33:20.289Z,42.00
2018-07-02T23:35:47.992Z,42.10
2018-07-02T23:38:15.670Z,42.20
2018-07-02T23:40:43.416Z,42.20
2018-07-02T23:43:11.057Z,42.20
2018-07-02T23:45:38.731Z,42.20
2018-07-02T23:48:06.426Z,42.30
2018-07-02T23:50:34.127Z,42.00
2018-07-02T23:53:01.852Z,42.10
2018-07-02T23:55:29.541Z,42.40
2018-07-02T23:57:57.251Z,42.50
